< < Back
Terminal Aerodrome Forecast


Current Version              Previous Versions:   1  2  3  4  5  6  7  8  9  

Terminal Aerodrome Forecast

390
FTUS42 KFFC 251100
TAFFTY
TAF
KFTY 251130Z 2512/2612 33005KT P6SM SKC
     FM251500 33007KT P6SM SKC
     FM260200 31004KT P6SM FEW025=



Latest METAR

640
SAUS70 KWBC 260200 RRB
MTRFTY
METAR KFTY 260153Z 00000KT 10SM CLR 14/11 A3004 RMK AO2 SLP171
T01440106


USA.gov is the U.S. government's official web portal to all federal, state and local government web resources and services.